sensor_id;sensor_type;location;lat;lon;timestamp;pressure;altitude;pressure_sealevel;temperature;humidity
12664;BME280;6396;58.490;15.528;2022-11-20T00:01:24;100818.78;;;0.83;100.00
12664;BME280;6396;58.490;15.528;2022-11-20T00:03:52;100947.38;;;1.57;100.00
12664;BME280;6396;58.490;15.528;2022-11-20T00:06:23;100894.13;;;1.36;100.00
12664;BME280;6396;58.490;15.528;2022-11-20T00:08:50;100969.31;;;1.74;100.00
12664;BME280;6396;58.490;15.528;2022-11-20T00:11:18;100966.84;;;1.83;100.00
12664;BME280;6396;58.490;15.528;2022-11-20T00:13:47;100970.09;;;1.70;100.00
12664;BME280;6396;58.490;15.528;2022-11-20T00:16:15;100929.78;;;1.41;100.00
12664;BME280;6396;58.490;15.528;2022-11-20T00:18:43;100896.78;;;1.40;100.00
12664;BME280;6396;58.490;15.528;2022-11-20T00:21:13;100964.22;;;1.82;100.00
12664;BME280;6396;58.490;15.528;2022-11-20T00:23:42;100885.28;;;1.25;100.00
12664;BME280;6396;58.490;15.528;2022-11-20T00:26:11;100929.22;;;1.62;100.00
12664;BME280;6396;58.490;15.528;2022-11-20T00:28:38;100926.28;;;1.41;100.00
12664;BME280;6396;58.490;15.528;2022-11-20T00:31:06;100966.66;;;1.71;100.00
12664;BME280;6396;58.490;15.528;2022-11-20T00:33:33;100935.34;;;1.65;100.00
12664;BME280;6396;58.490;15.528;2022-11-20T00:36:01;100942.56;;;1.86;100.00
12664;BME280;6396;58.490;15.528;2022-11-20T00:38:29;100979.91;;;1.88;100.00
12664;BME280;6396;58.490;15.528;2022-11-20T00:40:58;100823.66;;;1.19;100.00
12664;BME280;6396;58.490;15.528;2022-11-20T00:43:26;100986.94;;;1.92;100.00
12664;BME280;6396;58.490;15.528;2022-11-20T00:45:56;100909.25;;;1.61;100.00
12664;BME280;6396;58.490;15.528;2022-11-20T00:48:23;100937.47;;;1.93;100.00
12664;BME280;6396;58.490;15.528;2022-11-20T00:50:50;100856.97;;;1.44;100.00
12664;BME280;6396;58.490;15.528;2022-11-20T00:53:18;100830.50;;;1.14;100.00
12664;BME280;6396;58.490;15.528;2022-11-20T00:55:52;100874.09;;;1.30;100.00
12664;BME280;6396;58.490;15.528;2022-11-20T00:58:20;100892.66;;;1.53;100.00
12664;BME280;6396;58.490;15.528;2022-11-20T01:00:47;100825.47;;;1.25;100.00
12664;BME280;6396;58.490;15.528;2022-11-20T01:03:15;100970.44;;;1.94;100.00
12664;BME280;6396;58.490;15.528;2022-11-20T01:05:42;100920.94;;;1.88;100.00
12664;BME280;6396;58.490;15.528;2022-11-20T01:08:09;100856.84;;;1.37;100.00
12664;BME280;6396;58.490;15.528;2022-11-20T01:10:37;100782.53;;;0.91;100.00
12664;BME280;6396;58.490;15.528;2022-11-20T01:13:03;100892.03;;;1.70;100.00
12664;BME280;6396;58.490;15.528;2022-11-20T01:15:49;100751.84;;;0.69;100.00
12664;BME280;6396;58.490;15.528;2022-11-20T01:18:16;100887.13;;;1.32;100.00
12664;BME280;6396;58.490;15.528;2022-11-20T01:20:42;100895.22;;;1.50;100.00
12664;BME280;6396;58.490;15.528;2022-11-20T01:23:09;100873.78;;;1.67;100.00
12664;BME280;6396;58.490;15.528;2022-11-20T01:25:36;100657.13;;;0.46;100.00
12664;BME280;6396;58.490;15.528;2022-11-20T01:28:03;100931.22;;;1.79;100.00
12664;BME280;6396;58.490;15.528;2022-11-20T01:30:29;100963.47;;;1.89;100.00
12664;BME280;6396;58.490;15.528;2022-11-20T01:32:58;100828.06;;;1.25;100.00
12664;BME280;6396;58.490;15.528;2022-11-20T01:35:25;100903.50;;;1.83;100.00
12664;BME280;6396;58.490;15.528;2022-11-20T01:37:52;100836.06;;;1.37;100.00
12664;BME280;6396;58.490;15.528;2022-11-20T01:40:19;100836.00;;;1.34;100.00
12664;BME280;6396;58.490;15.528;2022-11-20T01:42:53;100753.88;;;0.88;100.00
12664;BME280;6396;58.490;15.528;2022-11-20T01:45:56;100922.44;;;1.73;100.00
12664;BME280;6396;58.490;15.528;2022-11-20T01:48:26;100894.66;;;1.73;100.00
12664;BME280;6396;58.490;15.528;2022-11-20T01:50:57;100758.59;;;1.13;100.00
12664;BME280;6396;58.490;15.528;2022-11-20T01:53:29;100860.63;;;1.55;100.00
12664;BME280;6396;58.490;15.528;2022-11-20T01:55:59;100751.28;;;0.88;100.00
12664;BME280;6396;58.490;15.528;2022-11-20T01:58:30;100815.16;;;1.29;100.00
12664;BME280;6396;58.490;15.528;2022-11-20T02:00:59;100847.72;;;1.64;100.00
12664;BME280;6396;58.490;15.528;2022-11-20T02:03:27;100686.13;;;0.73;100.00
12664;BME280;6396;58.490;15.528;2022-11-20T02:05:59;100872.28;;;1.84;100.00
12664;BME280;6396;58.490;15.528;2022-11-20T02:08:30;100874.97;;;1.89;100.00
12664;BME280;6396;58.490;15.528;2022-11-20T02:10:56;100811.94;;;1.47;100.00
12664;BME280;6396;58.490;15.528;2022-11-20T02:13:23;100900.09;;;1.87;100.00
12664;BME280;6396;58.490;15.528;2022-11-20T02:16:10;100872.09;;;1.71;100.00
12664;BME280;6396;58.490;15.528;2022-11-20T02:18:40;100772.63;;;1.24;100.00
12664;BME280;6396;58.490;15.528;2022-11-20T02:21:10;100772.69;;;1.30;100.00
12664;BME280;6396;58.490;15.528;2022-11-20T02:26:33;100799.09;;;1.59;100.00
12664;BME280;6396;58.490;15.528;2022-11-20T02:29:02;100740.66;;;1.34;100.00
12664;BME280;6396;58.490;15.528;2022-11-20T02:31:35;100774.59;;;1.43;100.00
12664;BME280;6396;58.490;15.528;2022-11-20T02:34:03;100785.13;;;1.52;100.00
12664;BME280;6396;58.490;15.528;2022-11-20T02:36:30;100784.38;;;1.61;100.00
12664;BME280;6396;58.490;15.528;2022-11-20T02:38:58;100832.44;;;1.88;100.00
12664;BME280;6396;58.490;15.528;2022-11-20T02:41:32;100844.53;;;1.85;100.00
12664;BME280;6396;58.490;15.528;2022-11-20T02:43:59;100734.44;;;1.22;100.00
12664;BME280;6396;58.490;15.528;2022-11-20T02:46:26;100888.91;;;1.95;100.00
12664;BME280;6396;58.490;15.528;2022-11-20T02:48:53;100778.31;;;1.62;100.00
12664;BME280;6396;58.490;15.528;2022-11-20T02:51:19;100831.53;;;1.86;100.00
12664;BME280;6396;58.490;15.528;2022-11-20T02:53:46;100521.56;;;0.07;100.00
12664;BME280;6396;58.490;15.528;2022-11-20T02:56:13;100707.53;;;1.20;100.00
12664;BME280;6396;58.490;15.528;2022-11-20T02:58:41;100822.97;;;1.96;100.00
12664;BME280;6396;58.490;15.528;2022-11-20T03:01:08;100810.78;;;1.92;100.00
12664;BME280;6396;58.490;15.528;2022-11-20T03:03:35;100814.25;;;1.94;100.00
12664;BME280;6396;58.490;15.528;2022-11-20T03:06:02;100757.50;;;1.62;100.00
12664;BME280;6396;58.490;15.528;2022-11-20T03:08:29;100813.31;;;1.88;100.00
12664;BME280;6396;58.490;15.528;2022-11-20T03:10:56;100782.63;;;1.61;100.00
12664;BME280;6396;58.490;15.528;2022-11-20T03:13:24;100688.28;;;1.04;100.00
12664;BME280;6396;58.490;15.528;2022-11-20T03:15:52;100769.56;;;1.57;100.00
12664;BME280;6396;58.490;15.528;2022-11-20T03:18:19;100834.88;;;1.78;100.00
12664;BME280;6396;58.490;15.528;2022-11-20T03:20:46;100841.03;;;1.84;100.00
12664;BME280;6396;58.490;15.528;2022-11-20T03:23:13;100783.50;;;1.62;100.00
12664;BME280;6396;58.490;15.528;2022-11-20T03:25:40;100802.03;;;1.87;100.00
12664;BME280;6396;58.490;15.528;2022-11-20T03:28:06;100816.00;;;1.92;100.00
12664;BME280;6396;58.490;15.528;2022-11-20T03:30:34;100805.59;;;1.95;100.00
12664;BME280;6396;58.490;15.528;2022-11-20T03:33:02;100627.69;;;1.09;100.00
12664;BME280;6396;58.490;15.528;2022-11-20T03:35:29;100581.47;;;0.84;100.00
12664;BME280;6396;58.490;15.528;2022-11-20T03:37:57;100702.56;;;1.38;100.00
12664;BME280;6396;58.490;15.528;2022-11-20T03:40:24;99997.91;;;-2.61;100.00
12664;BME280;6396;58.490;15.528;2022-11-20T03:42:50;100721.97;;;1.67;100.00
12664;BME280;6396;58.490;15.528;2022-11-20T03:45:18;100664.97;;;1.11;100.00
12664;BME280;6396;58.490;15.528;2022-11-20T03:47:45;100760.31;;;1.78;100.00
12664;BME280;6396;58.490;15.528;2022-11-20T03:50:13;100763.63;;;1.70;100.00
12664;BME280;6396;58.490;15.528;2022-11-20T03:52:41;100756.91;;;1.85;100.00
12664;BME280;6396;58.490;15.528;2022-11-20T03:55:08;100782.88;;;1.81;100.00
12664;BME280;6396;58.490;15.528;2022-11-20T03:57:34;100781.00;;;1.68;100.00
12664;BME280;6396;58.490;15.528;2022-11-20T04:00:02;100767.22;;;1.76;100.00
12664;BME280;6396;58.490;15.528;2022-11-20T04:02:29;100761.94;;;1.73;100.00
12664;BME280;6396;58.490;15.528;2022-11-20T04:04:56;100746.50;;;1.85;100.00
12664;BME280;6396;58.490;15.528;2022-11-20T04:07:24;100751.81;;;1.96;100.00
12664;BME280;6396;58.490;15.528;2022-11-20T04:09:51;100749.16;;;1.93;100.00
12664;BME280;6396;58.490;15.528;2022-11-20T04:12:18;100755.16;;;1.86;100.00
12664;BME280;6396;58.490;15.528;2022-11-20T04:14:44;100737.50;;;1.59;100.00
12664;BME280;6396;58.490;15.528;2022-11-20T04:17:11;100743.03;;;1.86;100.00
12664;BME280;6396;58.490;15.528;2022-11-20T04:19:38;100737.00;;;1.92;100.00
12664;BME280;6396;58.490;15.528;2022-11-20T04:22:05;100516.22;;;0.59;100.00
12664;BME280;6396;58.490;15.528;2022-11-20T04:24:33;100732.63;;;1.88;100.00
12664;BME280;6396;58.490;15.528;2022-11-20T04:27:00;100670.69;;;1.55;100.00
12664;BME280;6396;58.490;15.528;2022-11-20T04:29:27;100660.97;;;1.38;100.00
12664;BME280;6396;58.490;15.528;2022-11-20T04:31:53;100760.25;;;1.77;100.00
12664;BME280;6396;58.490;15.528;2022-11-20T04:34:20;100691.50;;;1.54;100.00
12664;BME280;6396;58.490;15.528;2022-11-20T04:36:47;100660.22;;;1.49;100.00
12664;BME280;6396;58.490;15.528;2022-11-20T04:39:14;100759.41;;;1.76;100.00
12664;BME280;6396;58.490;15.528;2022-11-20T04:41:43;100338.25;;;-0.56;100.00
12664;BME280;6396;58.490;15.528;2022-11-20T04:44:10;100690.72;;;1.62;100.00
12664;BME280;6396;58.490;15.528;2022-11-20T04:46:39;100734.22;;;1.75;100.00
12664;BME280;6396;58.490;15.528;2022-11-20T04:49:06;100725.50;;;1.70;100.00
12664;BME280;6396;58.490;15.528;2022-11-20T04:51:33;100744.63;;;1.75;100.00
12664;BME280;6396;58.490;15.528;2022-11-20T04:54:00;100654.75;;;1.27;100.00
12664;BME280;6396;58.490;15.528;2022-11-20T04:56:28;100708.97;;;1.67;100.00
12664;BME280;6396;58.490;15.528;2022-11-20T04:58:59;100710.66;;;1.63;100.00
12664;BME280;6396;58.490;15.528;2022-11-20T05:01:26;100528.53;;;0.73;100.00
12664;BME280;6396;58.490;15.528;2022-11-20T05:03:53;100666.34;;;1.54;100.00
12664;BME280;6396;58.490;15.528;2022-11-20T05:06:21;100698.69;;;1.80;100.00
12664;BME280;6396;58.490;15.528;2022-11-20T05:08:48;100697.66;;;1.63;100.00
12664;BME280;6396;58.490;15.528;2022-11-20T05:11:17;100643.53;;;1.29;100.00
12664;BME280;6396;58.490;15.528;2022-11-20T05:13:44;100719.47;;;1.74;100.00
12664;BME280;6396;58.490;15.528;2022-11-20T05:16:13;100634.09;;;1.39;100.00
12664;BME280;6396;58.490;15.528;2022-11-20T05:18:41;100633.25;;;1.41;100.00
12664;BME280;6396;58.490;15.528;2022-11-20T05:21:08;100632.25;;;1.29;100.00
12664;BME280;6396;58.490;15.528;2022-11-20T05:23:36;100696.88;;;1.73;100.00
12664;BME280;6396;58.490;15.528;2022-11-20T05:26:04;100696.88;;;1.73;100.00
12664;BME280;6396;58.490;15.528;2022-11-20T05:28:32;100518.84;;;0.62;100.00
12664;BME280;6396;58.490;15.528;2022-11-20T05:31:04;100622.00;;;1.42;100.00
12664;BME280;6396;58.490;15.528;2022-11-20T05:33:33;100648.13;;;1.56;100.00
12664;BME280;6396;58.490;15.528;2022-11-20T05:36:00;100648.00;;;1.42;100.00
12664;BME280;6396;58.490;15.528;2022-11-20T05:38:26;100586.22;;;1.22;100.00
12664;BME280;6396;58.490;15.528;2022-11-20T05:40:53;100705.50;;;1.66;100.00
12664;BME280;6396;58.490;15.528;2022-11-20T05:43:20;100713.41;;;1.75;100.00
12664;BME280;6396;58.490;15.528;2022-11-20T05:45:52;100297.69;;;-0.54;100.00
12664;BME280;6396;58.490;15.528;2022-11-20T05:48:19;100634.97;;;1.39;100.00
12664;BME280;6396;58.490;15.528;2022-11-20T05:50:47;100652.28;;;1.39;100.00
12664;BME280;6396;58.490;15.528;2022-11-20T05:53:14;100588.91;;;1.28;100.00
12664;BME280;6396;58.490;15.528;2022-11-20T05:55:41;100655.13;;;1.61;100.00
12664;BME280;6396;58.490;15.528;2022-11-20T05:58:08;100613.22;;;1.33;100.00
12664;BME280;6396;58.490;15.528;2022-11-20T06:00:34;100657.75;;;1.61;100.00
12664;BME280;6396;58.490;15.528;2022-11-20T06:03:02;100651.69;;;1.62;100.00
12664;BME280;6396;58.490;15.528;2022-11-20T06:05:29;100653.38;;;1.57;100.00
12664;BME280;6396;58.490;15.528;2022-11-20T06:07:57;100647.38;;;1.64;100.00
12664;BME280;6396;58.490;15.528;2022-11-20T06:10:23;100655.25;;;1.73;100.00
12664;BME280;6396;58.490;15.528;2022-11-20T06:12:50;100649.16;;;1.70;100.00
12664;BME280;6396;58.490;15.528;2022-11-20T06:15:17;100490.53;;;0.86;100.00
12664;BME280;6396;58.490;15.528;2022-11-20T06:17:44;100456.63;;;0.72;100.00
12664;BME280;6396;58.490;15.528;2022-11-20T06:20:11;100080.56;;;-1.51;100.00
12664;BME280;6396;58.490;15.528;2022-11-20T06:22:37;100615.19;;;1.56;100.00
12664;BME280;6396;58.490;15.528;2022-11-20T06:25:06;100511.38;;;0.87;100.00
12664;BME280;6396;58.490;15.528;2022-11-20T06:27:33;100675.25;;;1.76;100.00
12664;BME280;6396;58.490;15.528;2022-11-20T06:30:00;100652.63;;;1.69;100.00
12664;BME280;6396;58.490;15.528;2022-11-20T06:32:26;100357.38;;;0.21;100.00
12664;BME280;6396;58.490;15.528;2022-11-20T06:34:53;100617.66;;;1.41;100.00
12664;BME280;6396;58.490;15.528;2022-11-20T06:37:20;100672.63;;;1.73;100.00
12664;BME280;6396;58.490;15.528;2022-11-20T06:39:47;100631.88;;;1.76;100.00
12664;BME280;6396;58.490;15.528;2022-11-20T06:42:15;100504.50;;;0.95;100.00
12664;BME280;6396;58.490;15.528;2022-11-20T06:44:42;100650.69;;;1.48;100.00
12664;BME280;6396;58.490;15.528;2022-11-20T06:47:08;100562.75;;;1.14;100.00
12664;BME280;6396;58.490;15.528;2022-11-20T06:49:35;100649.81;;;1.49;100.00
12664;BME280;6396;58.490;15.528;2022-11-20T06:52:03;100559.31;;;1.18;100.00
12664;BME280;6396;58.490;15.528;2022-11-20T06:54:30;100623.13;;;1.70;100.00
12664;BME280;6396;58.490;15.528;2022-11-20T06:56:57;100307.66;;;-0.15;100.00
12664;BME280;6396;58.490;15.528;2022-11-20T06:59:25;100475.94;;;0.98;100.00
12664;BME280;6396;58.490;15.528;2022-11-20T07:01:52;100586.66;;;1.65;100.00
12664;BME280;6396;58.490;15.528;2022-11-20T07:04:19;100627.63;;;1.86;100.00
12664;BME280;6396;58.490;15.528;2022-11-20T07:06:45;100569.16;;;1.49;100.00
12664;BME280;6396;58.490;15.528;2022-11-20T07:09:12;100630.13;;;1.77;100.00
12664;BME280;6396;58.490;15.528;2022-11-20T07:11:39;100476.03;;;1.04;100.00
12664;BME280;6396;58.490;15.528;2022-11-20T07:14:06;100489.13;;;1.15;100.00
12664;BME280;6396;58.490;15.528;2022-11-20T07:16:34;100033.56;;;-1.84;100.00
12664;BME280;6396;58.490;15.528;2022-11-20T07:19:01;100602.19;;;1.58;100.00
12664;BME280;6396;58.490;15.528;2022-11-20T07:21:28;100578.53;;;1.29;100.00
12664;BME280;6396;58.490;15.528;2022-11-20T07:23:54;100607.56;;;1.71;100.00
12664;BME280;6396;58.490;15.528;2022-11-20T07:26:21;100597.09;;;1.67;100.00
12664;BME280;6396;58.490;15.528;2022-11-20T07:28:48;100602.38;;;1.77;100.00
12664;BME280;6396;58.490;15.528;2022-11-20T07:31:15;100573.47;;;1.44;100.00
12664;BME280;6396;58.490;15.528;2022-11-20T07:33:44;100596.25;;;1.69;100.00
12664;BME280;6396;58.490;15.528;2022-11-20T07:36:11;100513.53;;;1.29;100.00
12664;BME280;6396;58.490;15.528;2022-11-20T07:38:39;100618.00;;;1.77;100.00
12664;BME280;6396;58.490;15.528;2022-11-20T07:41:06;100573.44;;;1.43;100.00
12664;BME280;6396;58.490;15.528;2022-11-20T07:43:33;100590.28;;;1.82;100.00
12664;BME280;6396;58.490;15.528;2022-11-20T07:46:14;100484.63;;;1.00;100.00
12664;BME280;6396;58.490;15.528;2022-11-20T07:48:42;100621.50;;;1.78;100.00
12664;BME280;6396;58.490;15.528;2022-11-20T07:51:09;100562.44;;;1.71;100.00
12664;BME280;6396;58.490;15.528;2022-11-20T07:53:36;100554.38;;;1.44;100.00
12664;BME280;6396;58.490;15.528;2022-11-20T07:56:03;100536.31;;;1.57;100.00
12664;BME280;6396;58.490;15.528;2022-11-20T07:58:30;100505.81;;;1.41;100.00
12664;BME280;6396;58.490;15.528;2022-11-20T08:00:58;100261.00;;;-0.14;100.00
12664;BME280;6396;58.490;15.528;2022-11-20T08:03:28;100513.66;;;1.46;100.00
12664;BME280;6396;58.490;15.528;2022-11-20T08:05:58;100437.81;;;0.96;100.00
12664;BME280;6396;58.490;15.528;2022-11-20T08:08:25;100208.00;;;-0.37;100.00
12664;BME280;6396;58.490;15.528;2022-11-20T08:10:52;100512.72;;;1.35;100.00
12664;BME280;6396;58.490;15.528;2022-11-20T08:13:38;100509.50;;;1.69;100.00
12664;BME280;6396;58.490;15.528;2022-11-20T08:16:22;100581.75;;;2.01;100.00
12664;BME280;6396;58.490;15.528;2022-11-20T08:18:49;100404.13;;;1.08;100.00
12664;BME280;6396;58.490;15.528;2022-11-20T08:21:18;100336.31;;;0.76;100.00
12664;BME280;6396;58.490;15.528;2022-11-20T08:23:44;100588.75;;;2.05;100.00
12664;BME280;6396;58.490;15.528;2022-11-20T08:26:11;100464.13;;;1.34;100.00
12664;BME280;6396;58.490;15.528;2022-11-20T08:28:38;100547.09;;;2.05;100.00
12664;BME280;6396;58.490;15.528;2022-11-20T08:31:05;100487.91;;;1.80;100.00
12664;BME280;6396;58.490;15.528;2022-11-20T08:33:32;100528.78;;;1.92;100.00
12664;BME280;6396;58.490;15.528;2022-11-20T08:36:00;100544.53;;;2.13;100.00
12664;BME280;6396;58.490;15.528;2022-11-20T08:38:28;100547.09;;;2.05;100.00
12664;BME280;6396;58.490;15.528;2022-11-20T08:40:56;100204.22;;;0.15;100.00
12664;BME280;6396;58.490;15.528;2022-11-20T08:43:41;100525.28;;;1.90;100.00
12664;BME280;6396;58.490;15.528;2022-11-20T08:46:08;100471.53;;;1.93;100.00
12664;BME280;6396;58.490;15.528;2022-11-20T08:48:35;100482.66;;;1.74;100.00
12664;BME280;6396;58.490;15.528;2022-11-20T08:51:01;100531.53;;;2.20;100.00
12664;BME280;6396;58.490;15.528;2022-11-20T08:53:30;100551.47;;;2.14;100.00
12664;BME280;6396;58.490;15.528;2022-11-20T08:55:57;100488.88;;;1.94;100.00
12664;BME280;6396;58.490;15.528;2022-11-20T08:58:24;100394.06;;;1.50;100.00
12664;BME280;6396;58.490;15.528;2022-11-20T09:00:51;100519.31;;;2.04;100.00
12664;BME280;6396;58.490;15.528;2022-11-20T09:03:18;100509.75;;;2.06;100.00
12664;BME280;6396;58.490;15.528;2022-11-20T09:05:45;100530.78;;;2.35;100.00
12664;BME280;6396;58.490;15.528;2022-11-20T09:08:12;100172.16;;;0.10;100.00
12664;BME280;6396;58.490;15.528;2022-11-20T09:10:40;100455.13;;;2.09;100.00
12664;BME280;6396;58.490;15.528;2022-11-20T09:13:07;100375.94;;;1.67;100.00
12664;BME280;6396;58.490;15.528;2022-11-20T09:15:34;100527.31;;;2.36;100.00
12664;BME280;6396;58.490;15.528;2022-11-20T09:18:02;100375.09;;;1.71;100.00
12664;BME280;6396;58.490;15.528;2022-11-20T09:20:30;100459.38;;;1.95;100.00
12664;BME280;6396;58.490;15.528;2022-11-20T09:22:57;100433.31;;;1.89;100.00
12664;BME280;6396;58.490;15.528;2022-11-20T09:25:24;100455.06;;;2.00;100.00
12664;BME280;6396;58.490;15.528;2022-11-20T09:27:56;100525.56;;;2.35;100.00
12664;BME280;6396;58.490;15.528;2022-11-20T09:30:24;100509.09;;;2.39;100.00
12664;BME280;6396;58.490;15.528;2022-11-20T09:32:51;100442.06;;;1.97;100.00
12664;BME280;6396;58.490;15.528;2022-11-20T09:35:17;100440.34;;;2.08;100.00
12664;BME280;6396;58.490;15.528;2022-11-20T09:37:44;100422.16;;;2.11;100.00
12664;BME280;6396;58.490;15.528;2022-11-20T09:40:19;100367.34;;;1.84;100.00
12664;BME280;6396;58.490;15.528;2022-11-20T09:42:51;100467.47;;;2.53;100.00
12664;BME280;6396;58.490;15.528;2022-11-20T09:45:34;100370.00;;;1.93;100.00
12664;BME280;6396;58.490;15.528;2022-11-20T09:48:20;100482.25;;;2.54;100.00
12664;BME280;6396;58.490;15.528;2022-11-20T09:50:56;100304.78;;;1.57;100.00
12664;BME280;6396;58.490;15.528;2022-11-20T09:53:30;100431.75;;;2.24;100.00
12664;BME280;6396;58.490;15.528;2022-11-20T09:56:03;100400.47;;;2.14;100.00
12664;BME280;6396;58.490;15.528;2022-11-20T09:58:33;100465.75;;;2.58;100.00
12664;BME280;6396;58.490;15.528;2022-11-20T10:01:10;100455.31;;;2.53;100.00
12664;BME280;6396;58.490;15.528;2022-11-20T10:03:45;100370.09;;;2.17;100.00
12664;BME280;6396;58.490;15.528;2022-11-20T10:06:18;100435.34;;;2.58;100.00
12664;BME280;6396;58.490;15.528;2022-11-20T10:08:54;100432.72;;;2.52;100.00
12664;BME280;6396;58.490;15.528;2022-11-20T10:11:26;100442.31;;;2.64;100.00
12664;BME280;6396;58.490;15.528;2022-11-20T10:14:02;100267.44;;;1.45;100.00
12664;BME280;6396;58.490;15.528;2022-11-20T10:16:40;100425.81;;;2.59;100.00
12664;BME280;6396;58.490;15.528;2022-11-20T10:19:22;100435.38;;;2.69;100.00
12664;BME280;6396;58.490;15.528;2022-11-20T10:22:02;100475.31;;;2.63;100.00
12664;BME280;6396;58.490;15.528;2022-11-20T10:24:42;100416.25;;;2.65;100.00
12664;BME280;6396;58.490;15.528;2022-11-20T10:27:27;100318.84;;;2.07;100.00
12664;BME280;6396;58.490;15.528;2022-11-20T10:30:00;100253.66;;;1.70;100.00
12664;BME280;6396;58.490;15.528;2022-11-20T10:32:34;100414.53;;;2.67;100.00
12664;BME280;6396;58.490;15.528;2022-11-20T10:35:07;100341.47;;;2.28;100.00
12664;BME280;6396;58.490;15.528;2022-11-20T10:37:42;100405.84;;;2.71;100.00
12664;BME280;6396;58.490;15.528;2022-11-20T10:40:20;100390.22;;;2.73;100.00
12664;BME280;6396;58.490;15.528;2022-11-20T10:42:52;100217.25;;;1.71;100.00
12664;BME280;6396;58.490;15.528;2022-11-20T10:45:44;100238.06;;;1.74;100.00
12664;BME280;6396;58.490;15.528;2022-11-20T10:48:15;100393.69;;;2.66;100.00
12664;BME280;6396;58.490;15.528;2022-11-20T10:53:55;100347.63;;;2.47;100.00
12664;BME280;6396;58.490;15.528;2022-11-20T10:56:30;100145.16;;;1.24;100.00
12664;BME280;6396;58.490;15.528;2022-11-20T10:59:11;100425.81;;;2.65;100.00
12664;BME280;6396;58.490;15.528;2022-11-20T11:01:41;100378.03;;;2.73;100.00
12664;BME280;6396;58.490;15.528;2022-11-20T11:04:23;100246.78;;;1.91;100.00
12664;BME280;6396;58.490;15.528;2022-11-20T11:06:58;100371.09;;;2.66;100.00
12664;BME280;6396;58.490;15.528;2022-11-20T11:09:33;100306.78;;;2.31;100.00
12664;BME280;6396;58.490;15.528;2022-11-20T11:12:01;100378.91;;;2.74;100.00
12664;BME280;6396;58.490;15.528;2022-11-20T11:14:27;99923.94;;;0.14;100.00
12664;BME280;6396;58.490;15.528;2022-11-20T11:16:56;100371.97;;;2.65;100.00
12664;BME280;6396;58.490;15.528;2022-11-20T11:19:24;100382.38;;;2.70;100.00
12664;BME280;6396;58.490;15.528;2022-11-20T11:21:54;100325.06;;;2.52;100.00
12664;BME280;6396;58.490;15.528;2022-11-20T11:24:23;100051.47;;;0.90;100.00
12664;BME280;6396;58.490;15.528;2022-11-20T11:26:52;100403.22;;;2.70;100.00
12664;BME280;6396;58.490;15.528;2022-11-20T11:29:20;100319.81;;;2.49;100.00
12664;BME280;6396;58.490;15.528;2022-11-20T11:31:48;100107.91;;;1.31;100.00
12664;BME280;6396;58.490;15.528;2022-11-20T11:34:16;100168.66;;;1.70;100.00
12664;BME280;6396;58.490;15.528;2022-11-20T11:36:52;100232.94;;;2.04;100.00
12664;BME280;6396;58.490;15.528;2022-11-20T11:39:22;100319.81;;;2.71;100.00
12664;BME280;6396;58.490;15.528;2022-11-20T11:41:50;100150.41;;;1.49;100.00
12664;BME280;6396;58.490;15.528;2022-11-20T11:44:19;100164.34;;;1.68;100.00
12664;BME280;6396;58.490;15.528;2022-11-20T11:47:08;100219.94;;;2.09;100.00
12664;BME280;6396;58.490;15.528;2022-11-20T11:49:36;100305.94;;;2.59;100.00
12664;BME280;6396;58.490;15.528;2022-11-20T11:52:10;100273.78;;;2.51;100.00
12664;BME280;6396;58.490;15.528;2022-11-20T11:54:44;100310.28;;;2.72;100.00
12664;BME280;6396;58.490;15.528;2022-11-20T11:57:17;100305.09;;;2.67;100.00
12664;BME280;6396;58.490;15.528;2022-11-20T11:59:54;100250.34;;;2.37;100.00
12664;BME280;6396;58.490;15.528;2022-11-20T12:02:31;100291.16;;;2.70;100.00
12664;BME280;6396;58.490;15.528;2022-11-20T12:05:02;100261.66;;;2.48;100.00
12664;BME280;6396;58.490;15.528;2022-11-20T12:07:39;100285.09;;;2.62;100.00
12664;BME280;6396;58.490;15.528;2022-11-20T12:10:16;100186.06;;;1.95;100.00
12664;BME280;6396;58.490;15.528;2022-11-20T12:12:50;100166.94;;;1.74;100.00
12664;BME280;6396;58.490;15.528;2022-11-20T12:15:29;100216.44;;;2.07;100.00
12664;BME280;6396;58.490;15.528;2022-11-20T12:17:56;99976.97;;;0.82;100.00
12664;BME280;6396;58.490;15.528;2022-11-20T12:20:26;100314.63;;;2.64;100.00
12664;BME280;6396;58.490;15.528;2022-11-20T12:23:01;100229.50;;;2.34;100.00
12664;BME280;6396;58.490;15.528;2022-11-20T12:25:33;100096.69;;;1.60;100.00
12664;BME280;6396;58.490;15.528;2022-11-20T12:28:19;100192.13;;;1.90;100.00
12664;BME280;6396;58.490;15.528;2022-11-20T12:31:02;100263.38;;;2.46;100.00
12664;BME280;6396;58.490;15.528;2022-11-20T12:33:49;100254.69;;;2.47;100.00
12664;BME280;6396;58.490;15.528;2022-11-20T12:36:24;100278.16;;;2.55;100.00
12664;BME280;6396;58.490;15.528;2022-11-20T12:39:17;100239.94;;;2.48;100.00
12664;BME280;6396;58.490;15.528;2022-11-20T12:41:59;100234.75;;;2.54;100.00
12664;BME280;6396;58.490;15.528;2022-11-20T12:45:06;100240.81;;;2.50;100.00
12664;BME280;6396;58.490;15.528;2022-11-20T12:48:03;100121.88;;;1.87;100.00
12664;BME280;6396;58.490;15.528;2022-11-20T12:50:43;100188.72;;;2.15;100.00
12664;BME280;6396;58.490;15.528;2022-11-20T12:53:24;100223.44;;;2.43;100.00
12664;BME280;6396;58.490;15.528;2022-11-20T12:56:00;100217.34;;;2.39;100.00
12664;BME280;6396;58.490;15.528;2022-11-20T12:58:35;100074.16;;;1.62;100.00
12664;BME280;6396;58.490;15.528;2022-11-20T13:01:15;99980.47;;;1.15;100.00
12664;BME280;6396;58.490;15.528;2022-11-20T13:04:11;100203.44;;;2.42;100.00
12664;BME280;6396;58.490;15.528;2022-11-20T13:06:39;100177.41;;;2.08;100.00
12664;BME280;6396;58.490;15.528;2022-11-20T13:09:10;100169.59;;;2.28;100.00
12664;BME280;6396;58.490;15.528;2022-11-20T13:11:44;100018.63;;;1.42;100.00